createdAt,value
2019-03-01T00:04:45.572Z,5.80
2019-03-01T00:07:51.720Z,6.73
2019-03-01T00:14:02.430Z,6.60
2019-03-01T00:17:08.554Z,7.03
2019-03-01T00:20:14.902Z,6.90
2019-03-01T00:23:21.014Z,5.90
2019-03-01T00:26:27.276Z,6.37
2019-03-01T00:29:33.409Z,6.23
2019-03-01T00:32:39.555Z,6.67
2019-03-01T00:39:14.284Z,5.33
2019-03-01T00:42:07.642Z,6.47
2019-03-01T00:44:54.310Z,6.27
2019-03-01T00:47:21.460Z,6.60
2019-03-01T00:49:48.642Z,7.30
2019-03-01T00:52:15.852Z,7.43
2019-03-01T00:54:43.032Z,6.60
2019-03-01T01:03:16.268Z,5.50
2019-03-01T01:08:44.644Z,5.83
2019-03-01T01:11:52.688Z,5.07
2019-03-01T01:17:20.989Z,5.93
2019-03-01T01:19:48.153Z,7.20
2019-03-01T01:22:27.852Z,6.70
2019-03-01T01:24:55.014Z,5.83
2019-03-01T01:27:22.532Z,6.60
2019-03-01T01:29:49.750Z,5.53
2019-03-01T01:35:30.918Z,6.73
2019-03-01T01:38:29.763Z,6.50
2019-03-01T01:43:58.158Z,6.23
2019-03-01T01:46:25.368Z,6.77
2019-03-01T01:48:52.556Z,7.30
2019-03-01T01:54:34.284Z,5.80
2019-03-01T01:57:01.465Z,5.93
2019-03-01T01:59:28.617Z,5.83
2019-03-01T02:02:36.672Z,5.40
2019-03-01T02:08:24.419Z,5.27
2019-03-01T02:10:51.959Z,4.90
2019-03-01T02:13:19.199Z,4.73
2019-03-01T02:15:46.392Z,5.10
2019-03-01T02:18:13.505Z,5.13
2019-03-01T02:20:40.561Z,5.30
2019-03-01T02:23:07.767Z,4.80
2019-03-01T02:25:34.936Z,5.20
2019-03-01T02:28:02.116Z,4.27
2019-03-01T02:30:29.469Z,3.87
2019-03-01T02:32:56.672Z,4.87
2019-03-01T02:35:25.207Z,4.87
2019-03-01T02:37:52.464Z,4.10
2019-03-01T02:40:19.641Z,4.13
2019-03-01T02:42:46.853Z,4.50
2019-03-01T02:45:15.703Z,3.67
2019-03-01T02:47:42.776Z,3.87
2019-03-01T02:50:11.267Z,3.73
2019-03-01T02:52:38.491Z,3.20
2019-03-01T02:55:47.122Z,3.50
2019-03-01T02:58:14.407Z,3.90
2019-03-01T03:00:41.567Z,3.67
2019-03-01T03:03:08.733Z,4.60
2019-03-01T03:08:27.388Z,3.90
2019-03-01T03:10:54.577Z,3.77
2019-03-01T03:13:21.728Z,3.40
2019-03-01T03:16:29.770Z,4.90
2019-03-01T03:18:57.075Z,4.60
2019-03-01T03:24:45.362Z,4.70
2019-03-01T03:27:24.806Z,4.20
2019-03-01T03:29:51.996Z,4.03
2019-03-01T03:32:19.215Z,5.00
2019-03-01T03:35:07.350Z,4.57
2019-03-01T03:37:34.531Z,5.13
2019-03-01T03:40:01.734Z,5.27
2019-03-01T03:42:29.130Z,5.23
2019-03-01T03:44:56.268Z,4.27
2019-03-01T03:47:23.383Z,5.20
2019-03-01T03:49:51.127Z,5.33
2019-03-01T03:52:18.287Z,6.27
2019-03-01T03:54:45.471Z,5.30
2019-03-01T03:57:12.759Z,4.90
2019-03-01T03:59:39.996Z,5.27
2019-03-01T04:02:07.177Z,6.67
2019-03-01T04:04:34.360Z,5.80
2019-03-01T04:07:01.562Z,5.50
2019-03-01T04:09:29.082Z,5.30
2019-03-01T04:11:57.229Z,7.40
2019-03-01T04:14:24.588Z,6.00
2019-03-01T04:16:51.793Z,7.80
2019-03-01T04:19:18.975Z,6.43
2019-03-01T04:21:46.154Z,6.60
2019-03-01T04:24:13.622Z,7.10
2019-03-01T04:26:40.856Z,6.53
2019-03-01T04:29:08.036Z,6.83
2019-03-01T04:31:35.228Z,6.70
2019-03-01T04:34:02.465Z,7.20
2019-03-01T04:36:29.664Z,6.57
2019-03-01T04:38:56.928Z,7.00
2019-03-01T04:41:24.294Z,6.80
2019-03-01T04:43:51.548Z,6.83
2019-03-01T04:46:19.144Z,7.10
2019-03-01T04:48:46.584Z,7.50
2019-03-01T04:51:13.759Z,7.30
2019-03-01T04:53:41.033Z,8.10
2019-03-01T04:56:08.342Z,8.40
2019-03-01T04:58:35.550Z,8.03
2019-03-01T05:01:03.242Z,8.47
2019-03-01T05:03:30.575Z,8.33
2019-03-01T05:05:57.693Z,7.90
2019-03-01T05:08:24.966Z,8.10
2019-03-01T05:10:52.157Z,8.40
2019-03-01T05:13:19.337Z,8.80
2019-03-01T05:15:46.803Z,7.73
2019-03-01T05:18:14.599Z,7.73
2019-03-01T05:20:41.643Z,8.13
2019-03-01T05:23:08.845Z,9.03
2019-03-01T05:25:36.045Z,7.77
2019-03-01T05:28:03.222Z,7.80
2019-03-01T05:30:30.365Z,7.87
2019-03-01T05:32:57.594Z,8.27
2019-03-01T05:35:24.730Z,7.63
2019-03-01T05:37:51.879Z,8.40
2019-03-01T05:40:19.206Z,8.40
2019-03-01T05:42:46.363Z,7.90
2019-03-01T05:45:19.067Z,9.37
2019-03-01T05:47:46.146Z,7.90
2019-03-01T05:50:13.507Z,9.20
2019-03-01T05:52:40.774Z,7.47
2019-03-01T05:55:08.313Z,8.57
2019-03-01T05:57:35.847Z,9.00
2019-03-01T06:00:06.050Z,8.40
2019-03-01T06:03:22.715Z,8.30
2019-03-01T06:05:50.011Z,7.90
2019-03-01T06:08:48.120Z,8.30
2019-03-01T06:11:48.012Z,7.20
2019-03-01T06:15:15.535Z,8.80
2019-03-01T06:18:19.300Z,8.83
2019-03-01T06:20:52.309Z,9.20
2019-03-01T06:23:51.128Z,9.50
2019-03-01T06:26:49.795Z,9.40
2019-03-01T06:29:43.748Z,11.50
2019-03-01T06:32:36.218Z,9.00
2019-03-01T06:35:34.757Z,11.17
2019-03-01T06:39:12.042Z,10.27
2019-03-01T06:41:55.702Z,10.70
2019-03-01T06:44:57.211Z,10.40
2019-03-01T06:47:38.816Z,9.50
2019-03-01T06:50:17.144Z,9.77
2019-03-01T06:52:44.324Z,8.90
2019-03-01T06:55:36.728Z,8.93
2019-03-01T06:58:05.076Z,8.40
2019-03-01T07:00:35.842Z,9.70
2019-03-01T07:03:03.205Z,8.87
2019-03-01T07:05:30.418Z,8.40
2019-03-01T07:07:57.580Z,8.80
2019-03-01T07:10:25.037Z,8.90
2019-03-01T07:12:52.292Z,7.80
2019-03-01T07:15:19.613Z,7.40
2019-03-01T07:17:46.891Z,7.67
2019-03-01T07:20:14.077Z,6.50
2019-03-01T07:22:41.381Z,7.97
2019-03-01T07:25:08.616Z,6.90
2019-03-01T07:27:35.794Z,7.53
2019-03-01T07:30:03.364Z,8.13
2019-03-01T07:32:30.626Z,7.33
2019-03-01T07:34:57.814Z,7.47
2019-03-01T07:37:25.148Z,7.23
2019-03-01T07:39:52.370Z,7.60
2019-03-01T07:42:19.617Z,7.40
2019-03-01T07:44:46.841Z,7.93
2019-03-01T07:47:14.125Z,8.57
2019-03-01T07:49:41.408Z,6.73
2019-03-01T07:52:08.624Z,6.47
2019-03-01T07:54:36.014Z,8.33
2019-03-01T07:57:03.329Z,7.50
2019-03-01T07:59:31.818Z,6.53
2019-03-01T08:02:00.776Z,7.23
2019-03-01T08:04:29.693Z,7.53
2019-03-01T08:06:57.068Z,7.00
2019-03-01T08:09:24.276Z,7.47
2019-03-01T08:11:51.533Z,7.73
2019-03-01T08:14:18.751Z,7.37
2019-03-01T08:16:46.191Z,7.13
2019-03-01T08:19:17.058Z,6.93
2019-03-01T08:21:42.811Z,6.50
2019-03-01T08:24:11.932Z,7.13
2019-03-01T08:26:39.222Z,6.43
2019-03-01T08:29:06.827Z,6.87
2019-03-01T08:31:34.150Z,7.43
2019-03-01T08:34:02.195Z,6.40
2019-03-01T08:36:29.402Z,7.47
2019-03-01T08:38:56.623Z,6.07
2019-03-01T08:41:24.967Z,6.70
2019-03-01T08:43:52.890Z,6.50
2019-03-01T08:46:20.113Z,6.80
2019-03-01T08:48:47.292Z,6.80
2019-03-01T08:51:14.514Z,5.80
2019-03-01T08:53:41.722Z,7.23
2019-03-01T08:56:11.037Z,5.60
2019-03-01T08:58:41.561Z,5.87
2019-03-01T09:01:09.806Z,6.83
2019-03-01T09:03:41.749Z,5.87
2019-03-01T09:06:08.976Z,6.07
2019-03-01T09:08:36.341Z,5.60
2019-03-01T09:11:05.593Z,5.17
2019-03-01T09:13:32.723Z,6.50
2019-03-01T09:16:00.015Z,6.47
2019-03-01T09:18:27.193Z,5.53
2019-03-01T09:20:54.292Z,5.50
2019-03-01T09:23:26.424Z,6.47
2019-03-01T09:25:50.660Z,5.93
2019-03-01T09:28:17.901Z,5.97
2019-03-01T09:30:45.352Z,6.27
2019-03-01T09:33:12.390Z,6.00
2019-03-01T09:35:59.129Z,5.73
2019-03-01T09:38:26.292Z,5.50
2019-03-01T09:41:36.539Z,5.80
2019-03-01T09:44:23.602Z,6.20
2019-03-01T09:46:50.862Z,6.10
2019-03-01T09:49:18.052Z,7.50
2019-03-01T09:52:26.126Z,9.07
2019-03-01T09:54:53.623Z,9.60
2019-03-01T09:57:20.852Z,8.77
2019-03-01T09:59:48.091Z,9.33
2019-03-01T10:02:15.443Z,9.13
2019-03-01T10:04:42.879Z,5.77
2019-03-01T10:07:11.933Z,7.87
2019-03-01T10:09:39.190Z,8.63
2019-03-01T10:12:06.544Z,6.30
2019-03-01T10:14:33.793Z,6.40
2019-03-01T10:17:01.013Z,5.90
2019-03-01T10:19:47.698Z,6.10
2019-03-01T10:22:15.010Z,4.00
2019-03-01T10:24:42.212Z,6.90
2019-03-01T10:30:44.256Z,7.67
2019-03-01T10:33:12.201Z,5.43
2019-03-01T10:35:39.316Z,4.20
2019-03-01T10:41:07.953Z,5.00
2019-03-01T10:43:35.251Z,4.30
2019-03-01T10:46:14.803Z,13.60
2019-03-01T10:48:42.031Z,4.70
2019-03-01T10:51:09.210Z,7.70
2019-03-01T10:53:36.458Z,5.53
2019-03-01T10:56:03.638Z,3.43
2019-03-01T10:58:30.797Z,4.00
2019-03-01T11:00:58.341Z,4.23
2019-03-01T11:03:25.814Z,3.40
2019-03-01T11:06:33.753Z,3.80
2019-03-01T11:12:47.270Z,3.63
2019-03-01T11:18:15.263Z,3.00
2019-03-01T11:20:42.394Z,4.13
2019-03-01T11:23:21.547Z,3.33
2019-03-01T11:25:48.727Z,3.60
2019-03-01T11:28:16.237Z,3.70
2019-03-01T11:40:06.735Z,4.63
2019-03-01T11:42:34.436Z,4.40
2019-03-01T11:45:01.637Z,4.97
2019-03-01T11:47:30.650Z,5.30
2019-03-01T11:49:57.861Z,15.00
2019-03-01T11:52:25.075Z,6.17
2019-03-01T11:54:52.251Z,5.53
2019-03-01T11:57:19.500Z,9.50
2019-03-01T11:59:46.677Z,13.20
2019-03-01T12:02:13.895Z,9.67
2019-03-01T12:14:05.107Z,11.73
2019-03-01T12:16:44.035Z,5.67
2019-03-01T12:27:53.218Z,10.07
2019-03-01T12:33:22.374Z,13.37
2019-03-01T12:36:01.541Z,12.47
2019-03-01T12:38:40.725Z,12.07
2019-03-01T12:41:07.897Z,15.13
2019-03-01T12:43:35.400Z,13.73
2019-03-01T12:49:03.981Z,21.00
2019-03-01T12:52:11.968Z,19.40
2019-03-01T12:54:39.659Z,30.37
2019-03-01T12:57:26.401Z,26.90
2019-03-01T13:03:14.175Z,24.80
2019-03-01T13:05:41.325Z,32.40
2019-03-01T13:08:08.859Z,34.60
2019-03-01T13:10:36.824Z,36.20
2019-03-01T13:16:12.071Z,32.57
2019-03-01T13:18:39.345Z,35.50
2019-03-01T13:21:09.593Z,32.87
2019-03-01T13:23:46.654Z,31.90
2019-03-01T13:26:13.840Z,32.80
2019-03-01T13:28:43.847Z,31.30
2019-03-01T13:31:11.477Z,33.87
2019-03-01T13:33:39.251Z,30.60
2019-03-01T13:36:06.408Z,31.60
2019-03-01T13:38:35.093Z,42.53
2019-03-01T13:41:02.991Z,34.37
2019-03-01T13:43:30.511Z,33.67
2019-03-01T13:45:57.752Z,35.53
2019-03-01T13:48:25.305Z,36.97
2019-03-01T13:50:52.363Z,37.93
2019-03-01T13:53:19.607Z,39.87
2019-03-01T13:55:46.757Z,35.20
2019-03-01T13:58:13.972Z,32.83
2019-03-01T14:00:41.547Z,35.50
2019-03-01T14:03:08.615Z,33.67
2019-03-01T14:05:35.682Z,36.70
2019-03-01T14:08:09.068Z,37.17
2019-03-01T14:10:33.039Z,38.57
2019-03-01T14:13:00.256Z,36.83
2019-03-01T14:15:27.529Z,38.57
2019-03-01T14:18:00.617Z,38.63
2019-03-01T14:20:23.766Z,39.60
2019-03-01T14:22:51.004Z,34.63
2019-03-01T14:25:18.458Z,34.23
2019-03-01T14:27:45.995Z,36.47
2019-03-01T14:30:15.501Z,35.97
2019-03-01T14:32:42.693Z,38.17
2019-03-01T14:35:10.704Z,39.20
2019-03-01T14:37:37.919Z,37.57
2019-03-01T14:40:07.112Z,38.00
2019-03-01T14:42:34.325Z,38.33
2019-03-01T14:45:01.571Z,34.77
2019-03-01T14:47:32.589Z,36.77
2019-03-01T14:49:58.738Z,35.07
2019-03-01T14:52:26.250Z,35.00
2019-03-01T14:54:54.149Z,34.67
2019-03-01T14:57:30.725Z,33.60
2019-03-01T15:00:14.234Z,34.77
2019-03-01T15:02:53.273Z,34.53
2019-03-01T15:05:20.892Z,33.00
2019-03-01T15:07:48.065Z,33.53
2019-03-01T15:10:16.005Z,35.07
2019-03-01T15:12:43.304Z,38.83
2019-03-01T15:15:11.613Z,36.03
2019-03-01T15:17:39.216Z,36.20
2019-03-01T15:20:08.943Z,36.00
2019-03-01T15:22:36.186Z,34.70
2019-03-01T15:25:04.161Z,36.50
2019-03-01T15:27:31.401Z,36.40
2019-03-01T15:29:58.611Z,35.63
2019-03-01T15:32:26.044Z,37.43
2019-03-01T15:34:53.225Z,37.30
2019-03-01T15:37:20.443Z,37.80
2019-03-01T15:39:47.925Z,35.63
2019-03-01T15:42:17.880Z,38.93
2019-03-01T15:44:44.495Z,38.73
2019-03-01T15:47:11.647Z,36.70
2019-03-01T15:49:38.854Z,34.67
2019-03-01T15:52:06.318Z,35.60
2019-03-01T15:54:35.857Z,35.70
2019-03-01T15:57:02.849Z,35.60
2019-03-01T15:59:30.037Z,35.10
2019-03-01T16:01:57.269Z,33.20
2019-03-01T16:04:24.797Z,34.27
2019-03-01T16:06:55.247Z,32.83
2019-03-01T16:09:21.727Z,31.37
2019-03-01T16:11:53.206Z,34.23
2019-03-01T16:14:21.102Z,31.80
2019-03-01T16:16:50.164Z,33.17
2019-03-01T16:19:17.402Z,31.60
2019-03-01T16:21:44.580Z,30.10
2019-03-01T16:24:12.214Z,29.70
2019-03-01T16:26:39.417Z,29.30
2019-03-01T16:29:07.311Z,29.63
2019-03-01T16:31:35.808Z,27.10
2019-03-01T16:34:04.358Z,29.83
2019-03-01T16:36:52.851Z,28.10
2019-03-01T16:39:20.596Z,28.23
2019-03-01T16:41:51.783Z,25.63
2019-03-01T16:44:19.042Z,27.33
2019-03-01T16:46:46.552Z,28.60
2019-03-01T16:49:13.757Z,28.77
2019-03-01T16:51:41.368Z,28.10
2019-03-01T16:54:08.925Z,30.60
2019-03-01T16:56:38.535Z,29.17
2019-03-01T16:59:07.315Z,27.00
2019-03-01T17:01:34.318Z,27.77
2019-03-01T17:04:01.508Z,27.00
2019-03-01T17:06:29.244Z,26.70
2019-03-01T17:08:56.422Z,27.37
2019-03-01T17:11:23.944Z,24.67
2019-03-01T17:13:51.456Z,26.40
2019-03-01T17:16:20.416Z,25.20
2019-03-01T17:18:48.606Z,26.93
2019-03-01T17:21:16.621Z,27.20
2019-03-01T17:23:43.868Z,25.97
2019-03-01T17:26:11.068Z,24.67
2019-03-01T17:28:38.346Z,24.97
2019-03-01T17:31:05.583Z,22.77
2019-03-01T17:33:32.893Z,23.37
2019-03-01T17:36:00.194Z,23.20
2019-03-01T17:38:27.409Z,22.37
2019-03-01T17:40:54.586Z,21.53
2019-03-01T17:43:22.211Z,22.07
2019-03-01T17:45:49.435Z,20.10
2019-03-01T17:48:18.340Z,20.87
2019-03-01T17:50:45.776Z,19.47
2019-03-01T17:53:12.962Z,19.40
2019-03-01T17:55:40.170Z,20.10
2019-03-01T17:58:08.919Z,19.57
2019-03-01T18:00:37.094Z,19.97
2019-03-01T18:03:04.314Z,18.90
2019-03-01T18:05:31.544Z,19.03
2019-03-01T18:08:00.019Z,20.03
2019-03-01T18:10:28.696Z,19.20
2019-03-01T18:12:57.319Z,20.60
2019-03-01T18:15:24.820Z,20.20
2019-03-01T18:17:52.467Z,18.60
2019-03-01T18:20:19.759Z,18.23
2019-03-01T18:22:46.963Z,17.97
2019-03-01T18:25:14.407Z,16.93
2019-03-01T18:27:41.776Z,17.07
2019-03-01T18:30:12.448Z,15.60
2019-03-01T18:32:41.740Z,16.87
2019-03-01T18:35:11.432Z,15.60
2019-03-01T18:37:38.663Z,16.80
2019-03-01T18:40:07.290Z,16.17
2019-03-01T18:42:38.056Z,15.43
2019-03-01T18:45:07.079Z,14.77
2019-03-01T18:47:33.951Z,15.77
2019-03-01T18:50:01.158Z,16.50
2019-03-01T18:52:28.645Z,15.90
2019-03-01T18:54:55.945Z,14.00
2019-03-01T18:57:23.465Z,13.93
2019-03-01T18:59:50.787Z,14.27
2019-03-01T19:02:18.076Z,13.93
2019-03-01T19:04:45.304Z,13.90
2019-03-01T19:07:13.046Z,13.17
2019-03-01T19:09:40.220Z,13.17
2019-03-01T19:12:09.485Z,12.50
2019-03-01T19:14:39.208Z,11.87
2019-03-01T19:17:05.898Z,12.87
2019-03-01T19:19:33.207Z,10.40
2019-03-01T19:22:00.396Z,10.47
2019-03-01T19:24:27.576Z,9.90
2019-03-01T19:26:54.799Z,9.60
2019-03-01T19:29:22.309Z,9.93
2019-03-01T19:31:49.526Z,8.87
2019-03-01T19:37:17.925Z,11.43
2019-03-01T19:46:19.949Z,16.43
2019-03-01T19:48:59.052Z,16.00
2019-03-01T20:00:29.999Z,21.87
2019-03-01T20:05:58.582Z,21.80
2019-03-01T20:08:26.416Z,21.77
2019-03-01T20:11:16.000Z,19.30
2019-03-01T20:13:43.235Z,17.83
2019-03-01T20:16:51.306Z,17.80
2019-03-01T20:23:26.528Z,18.13
2019-03-01T20:32:35.204Z,13.93
2019-03-01T20:38:10.633Z,14.87
2019-03-01T20:40:37.851Z,13.70
2019-03-01T20:43:06.918Z,14.93
2019-03-01T20:45:59.998Z,14.53
2019-03-01T20:48:28.947Z,13.93
2019-03-01T20:51:02.941Z,13.47
2019-03-01T20:53:30.180Z,14.00
2019-03-01T20:55:57.744Z,15.40
2019-03-01T20:58:25.117Z,13.50
2019-03-01T21:00:52.299Z,14.90
2019-03-01T21:06:21.111Z,13.50
2019-03-01T21:08:48.321Z,14.80
2019-03-01T21:14:16.859Z,15.47
2019-03-01T21:16:44.853Z,15.27
2019-03-01T21:19:19.046Z,15.43
2019-03-01T21:21:46.834Z,15.47
2019-03-01T21:24:14.016Z,16.73
2019-03-01T21:26:41.285Z,16.27
2019-03-01T21:29:08.955Z,18.30
2019-03-01T21:34:48.329Z,17.60
2019-03-01T21:37:16.638Z,18.17
2019-03-01T21:40:46.916Z,18.63
2019-03-01T21:43:21.028Z,19.13
2019-03-01T21:45:48.313Z,18.20
2019-03-01T21:48:18.632Z,19.33
2019-03-01T21:53:57.562Z,18.50
2019-03-01T22:00:10.930Z,18.80
2019-03-01T22:02:38.498Z,18.60
2019-03-01T22:05:25.150Z,20.13
2019-03-01T22:08:12.933Z,18.73
2019-03-01T22:10:47.026Z,19.33
2019-03-01T22:13:16.028Z,19.53
2019-03-01T22:15:45.403Z,20.10
2019-03-01T22:18:12.623Z,19.10
2019-03-01T22:20:59.217Z,20.20
2019-03-01T22:23:26.493Z,18.80
2019-03-01T22:25:55.601Z,18.40
2019-03-01T22:28:43.119Z,19.00
2019-03-01T22:31:10.333Z,18.73
2019-03-01T22:33:39.305Z,21.10
2019-03-01T22:36:07.172Z,19.00
2019-03-01T22:39:16.599Z,23.23
2019-03-01T22:41:50.153Z,23.63
2019-03-01T22:44:17.353Z,25.30
2019-03-01T22:47:25.412Z,21.70
2019-03-01T22:49:52.570Z,20.50
2019-03-01T22:52:20.142Z,20.00
2019-03-01T22:57:27.828Z,20.43
2019-03-01T23:09:18.944Z,20.30
2019-03-01T23:15:19.780Z,19.73
2019-03-01T23:17:46.842Z,18.50
2019-03-01T23:20:14.064Z,20.93
2019-03-01T23:22:42.668Z,21.80
2019-03-01T23:25:30.565Z,21.50
2019-03-01T23:27:57.793Z,20.60
2019-03-01T23:39:48.005Z,18.60
2019-03-01T23:42:34.646Z,19.97
2019-03-01T23:51:06.738Z,18.77
2019-03-01T23:54:33.851Z,20.33
2019-03-01T23:57:20.567Z,17.73
